Data for 01/10/2015

Time Sea-Level Adjusted Pressure Absolute Pressure Temperature Relative Humidity Dew Point   
(mb) (inHg) (mb) (inHg) (C) (F) (%) (C) (F)
00:05 1017 30.03 846 24.98 -7.8 18 85 -9.9 14.3
00:10 1017 30.03 846 24.98 -7.7 18.2 85 -9.8 14.4
00:15 1017 30.03 846 24.98 -7.4 18.8 84 -9.7 14.6
00:20 1017 30.03 846 24.98 -7.1 19.2 83 -9.6 14.7
00:25 1017 30.03 846 24.98 -7 19.4 82 -9.5 14.9
00:30 1017 30.03 846 24.98 -6.9 19.5 82 -9.5 14.9
00:35 1017 30.03 846 24.98 -7 19.4 82 -9.6 14.8
00:40 1017 30.03 846 24.98 -7 19.4 82 -9.6 14.6
00:45 1017 30.03 846 24.98 -7.1 19.3 81 -9.7 14.5
00:50 1017 30.03 846 24.98 -7.3 18.9 82 -9.8 14.3
00:55 1017 30.03 846 24.98 -7.8 18 84 -10 14
01:00 1017 30.03 846 24.98 -8.1 17.4 85 -10.2 13.7
01:05 1017 30.03 846 24.98 -8.2 17.3 86 -10.2 13.6
01:10 1017 30.03 846 24.98 -8.3 17.1 85 -10.3 13.4
01:15 1017 30.03 846 24.98 -8.5 16.8 86 -10.4 13.2
01:20 1017 30.03 846 24.98 -8.8 16.2 88 -10.4 13.2
01:25 1017 30.03 846 24.98 -8.8 16.2 88 -10.4 13.2
01:30 1016 30 846 24.98 -8.8 16.2 88 -10.3 13.4
01:35 1016 30 846 24.98 -8.6 16.6 88 -10.2 13.7
01:40 1016 30 846 24.98 -8.3 17 88 -10 14.1
01:45 1016 30 846 24.98 -8.1 17.5 88 -9.7 14.5
01:50 1016 30 846 24.98 -8 17.6 88 -9.6 14.6
01:55 1016 30 846 24.98 -7.8 17.9 87 -9.7 14.5
02:00 1016 30 846 24.98 -7.8 17.9 87 -9.7 14.6
02:05 1016 30 846 24.98 -7.8 17.9 87 -9.7 14.6
02:10 1016 30 846 24.98 -7.9 17.9 87 -9.7 14.5
02:15 1016 30 846 24.98 -8 17.6 87 -9.8 14.3
02:20 1016 30 846 24.98 -8 17.7 87 -9.8 14.4
02:25 1016 30 846 24.98 -8 17.7 88 -9.6 14.6
02:30 1016 30 846 24.98 -7.9 17.7 88 -9.6 14.7
02:35 1016 30 846 24.98 -7.9 17.9 88 -9.5 14.8
02:40 1016 30 846 24.98 -7.9 17.9 88 -9.5 14.9
02:45 1016 30 846 24.98 -7.9 17.8 88 -9.5 14.9
02:50 1016 30 846 24.98 -7.6 18.3 88 -9.2 15.4
02:55 1016 30 846 24.98 -7.3 18.8 88 -9 15.9
03:00 1016 30 846 24.98 -7.1 19.3 88 -8.7 16.3
03:05 1016 30 846 24.98 -6.9 19.7 87 -8.7 16.4
03:10 1016 30 846 24.98 -7 19.5 87 -8.8 16.2
03:15 1016 30 846 24.98 -7.1 19.3 87 -8.8 16.1
03:20 1016 30 846 24.98 -7 19.4 88 -8.7 16.4
03:25 1016 30 846 24.98 -6.9 19.6 88 -8.6 16.6
03:30 1016 30 846 24.98 -6.9 19.6 88 -8.6 16.5
03:35 1016 30 846 24.98 -7 19.4 88 -8.7 16.4
03:40 1016 30 846 24.98 -7.3 19 88 -8.8 16.1
03:45 1016 30 846 24.98 -7.2 19.1 89 -8.6 16.5
03:50 1016 30 846 24.98 -7 19.4 88 -8.6 16.5
03:55 1016 30 846 24.98 -7 19.4 88 -8.7 16.4
04:00 1016 30 845 24.95 -6.9 19.5 88 -8.6 16.6
04:05 1016 30 845 24.95 -7.1 19.2 88 -8.8 16.1
04:10 1016 30 845 24.95 -7.3 19 88 -8.9 15.9
04:15 1016 30 845 24.95 -7.1 19.3 88 -8.8 16.2
04:20 1016 30 845 24.95 -7.2 19.1 88 -8.8 16.2
04:25 1016 30 845 24.95 -7.1 19.2 88 -8.7 16.3
04:30 1016 30 845 24.95 -6.9 19.5 88 -8.6 16.5
04:35 1016 30 845 24.95 -6.8 19.7 88 -8.5 16.7
04:40 1016 30 845 24.95 -6.9 19.6 88 -8.6 16.6
04:45 1016 30 845 24.95 -6.9 19.5 88 -8.6 16.6
04:50 1016 30 845 24.95 -7.1 19.3 88 -8.7 16.3
04:55 1016 30 845 24.95 -7.2 19 88 -8.9 16
05:00 1016 30 845 24.95 -7.2 19.1 89 -8.8 16.2
05:05 1016 30 845 24.95 -6.9 19.5 89 -8.4 16.9
05:10 1016 30 845 24.95 -6.4 20.4 88 -8.1 17.4
05:15 1016 30 845 24.95 -6.1 21 87 -7.9 17.7
05:20 1016 30 845 24.95 -5.9 21.4 85 -8 17.5
05:25 1016 30 845 24.95 -5.9 21.4 84 -8.1 17.4
05:30 1016 30 845 24.95 -5.9 21.3 85 -8.1 17.4
05:35 1016 30 845 24.95 -6.1 21 86 -8.1 17.4
05:40 1016 30 845 24.95 -6.2 20.9 88 -7.9 17.7
05:45 1016 30 845 24.95 -5.8 21.6 86 -7.7 18.1
05:50 1016 30 845 24.95 -5.6 22 83 -8 17.6
05:55 1016 30 845 24.95 -6.2 20.8 86 -8.2 17.2
06:00 1016 30 845 24.95 -6.3 20.7 86 -8.3 17.1
06:05 1015 29.97 845 24.95 -6.2 20.8 86 -8.2 17.2
06:10 1015 29.97 845 24.95 -6.1 21 86 -8.1 17.4
06:15 1015 29.97 845 24.95 -6.1 21 85 -8.2 17.2
06:20 1015 29.97 845 24.95 -6.2 20.8 85 -8.4 17
06:25 1015 29.97 844 24.92 -6.4 20.6 86 -8.4 16.9
06:30 1015 29.97 844 24.92 -6.4 20.6 86 -8.4 16.9
06:35 1015 29.97 844 24.92 -6.2 20.8 85 -8.3 17
06:40 1015 29.97 844 24.92 -6 21.2 85 -8.2 17.3
06:45 1015 29.97 844 24.92 -5.5 22.1 82 -8 17.5
06:50 1015 29.97 844 24.92 -5.6 21.9 83 -8 17.6
06:55 1015 29.97 844 24.92 -5.7 21.7 82 -8.3 17.1
07:00 1015 29.97 845 24.95 -5.8 21.6 82 -8.4 16.8
07:05 1015 29.97 845 24.95 -5.5 22.1 81 -8.3 17
07:10 1015 29.97 845 24.95 -5.5 22 81 -8.2 17.2
07:15 1015 29.97 845 24.95 -5.5 22.1 82 -8.2 17.3
07:20 1015 29.97 845 24.95 -5.4 22.3 81 -8.2 17.3
07:25 1015 29.97 845 24.95 -5.4 22.3 81 -8.2 17.3
07:30 1015 29.97 845 24.95 -5.5 22.2 81 -8.2 17.3
07:35 1015 29.97 845 24.95 -5.5 22.2 81 -8.2 17.3
07:40 1015 29.97 845 24.95 -5.2 22.7 80 -8.1 17.5
07:45 1015 29.97 845 24.95 -5.1 22.9 80 -8.1 17.5
07:50 1015 29.97 844 24.92 -5.1 22.9 79 -8.1 17.4
07:55 1015 29.97 844 24.92 -5.2 22.7 82 -7.8 17.9
08:00 1015 29.97 844 24.92 -5.6 22 81 -8.4 17
08:05 1015 29.97 844 24.92 -6.3 20.6 84 -8.6 16.6
08:10 1015 29.97 844 24.92 -6.5 20.4 84 -8.8 16.2
08:15 1015 29.97 844 24.92 -6.5 20.2 87 -8.4 16.9
08:20 1015 29.97 844 24.92 -5.8 21.6 81 -8.5 16.8
08:25 1015 29.97 844 24.92 -5.7 21.8 83 -8.2 17.2
08:30 1015 29.97 844 24.92 -5.4 22.2 81 -8.1 17.3
08:35 1015 29.97 844 24.92 -5.2 22.6 79 -8.3 17.1
08:40 1015 29.97 844 24.92 -5.7 21.8 81 -8.4 16.8
08:45 1015 29.97 844 24.92 -5.5 22.1 80 -8.5 16.7
08:50 1015 29.97 844 24.92 -5.1 22.7 79 -8.2 17.2
08:55 1015 29.97 844 24.92 -5.3 22.5 79 -8.3 17.1
09:00 1015 29.97 844 24.92 -5.5 22.1 81 -8.3 17.1
09:05 1015 29.97 844 24.92 -5.5 22.1 80 -8.4 17
09:10 1015 29.97 844 24.92 -5.3 22.5 79 -8.3 17
09:15 1015 29.97 845 24.95 -5.3 22.5 79 -8.3 17
09:20 1015 29.97 845 24.95 -5.3 22.4 80 -8.2 17.2
09:25 1016 30 845 24.95 -5.4 22.3 80 -8.3 17
09:30 1016 30 845 24.95 -5.6 21.9 80 -8.5 16.6
09:35 1016 30 845 24.95 -6.1 21 82 -8.7 16.3
09:40 1016 30 845 24.95 -6.6 20.1 84 -8.9 15.9
09:45 1016 30 845 24.95 -6.8 19.7 85 -9 15.8
09:50 1016 30 845 24.95 -6.8 19.8 84 -9 15.8
09:55 1016 30 845 24.95 -6.9 19.6 85 -9 15.7
10:00 1016 30 845 24.95 -6.9 19.6 85 -9 15.8
10:05 1016 30 845 24.95 -6.5 20.4 82 -9.1 15.6
10:10 1016 30 845 24.95 -6.5 20.3 83 -9 15.8
10:15 1016 30 845 24.95 -6.4 20.6 82 -8.9 16
10:20 1016 30 845 24.95 -6 21.1 81 -8.8 16.2
10:25 1016 30 845 24.95 -6 21.3 80 -8.8 16.1
10:30 1016 30 845 24.95 -5.8 21.5 79 -8.8 16.1
10:35 1016 30 845 24.95 -5.5 22.1 79 -8.6 16.4
10:40 1016 30 845 24.95 -5 22.9 77 -8.5 16.7
10:45 1016 30 845 24.95 -4.7 23.5 77 -8.1 17.3
10:50 1016 30 845 24.95 -4.9 23.2 77 -8.4 16.9
10:55 1016 30 845 24.95 -4.6 23.7 76 -8.2 17.3
11:00 1016 30 845 24.95 -3.9 25 74 -7.9 17.8
11:05 1016 30 845 24.95 -3.7 25.4 74 -7.7 18.1
11:10 1016 30 845 24.95 -3.7 25.4 75 -7.6 18.4
11:15 1016 30 845 24.95 -3.1 26.5 72 -7.5 18.5
11:20 1016 30 845 24.95 -2.3 27.8 69 -7.3 18.9
11:25 1016 30 845 24.95 -2.3 27.9 69 -7.2 19.1
11:30 1016 30 845 24.95 -1.7 28.9 66 -7.3 18.8
11:35 1016 30 845 24.95 -1.4 29.5 65 -7.1 19.2
11:40 1016 30 845 24.95 -1.1 30.1 64 -7 19.5
11:45 1016 30 845 24.95 -0.2 31.7 60 -7.1 19.3
11:50 1016 30 845 24.95 -0.2 31.7 61 -6.9 19.7
11:55 1016 30 845 24.95 0.1 32.2 59 -6.9 19.7
12:00 1016 30 845 24.95 0.2 32.4 60 -6.7 19.9
12:05 1016 30 845 24.95 0.7 33.3 58 -6.7 19.9
12:10 1016 30 845 24.95 1 33.8 57 -6.7 19.9
12:15 1016 30 845 24.95 1.1 34 56 -6.8 19.8
12:20 1016 30 845 24.95 1.3 34.3 56 -6.5 20.4
12:25 1016 30 845 24.95 0.8 33.5 59 -6.3 20.6
12:30 1015 29.97 845 24.95 0.8 33.4 58 -6.6 20.1
12:35 1015 29.97 845 24.95 0.8 33.4 57 -6.9 19.6
12:40 1015 29.97 845 24.95 1.2 34.1 55 -6.9 19.6
12:45 1015 29.97 844 24.92 1.5 34.8 55 -6.6 20.1
12:50 1015 29.97 844 24.92 1.4 34.6 57 -6.1 21
12:55 1015 29.97 844 24.92 1 33.8 57 -6.5 20.3
13:00 1015 29.97 844 24.92 1.6 34.8 56 -6.3 20.6
13:05 1015 29.97 844 24.92 2.6 36.7 54 -5.9 21.5
13:10 1015 29.97 844 24.92 3 37.4 52 -6 21.2
13:15 1015 29.97 844 24.92 2.6 36.7 54 -5.8 21.6
13:20 1015 29.97 844 24.92 2.1 35.7 55 -6 21.2
13:25 1015 29.97 844 24.92 2.2 35.9 56 -5.7 21.7
13:30 1015 29.97 844 24.92 2.8 37.1 52 -6 21.1
13:35 1015 29.97 844 24.92 3.9 39 51 -5.4 22.4
13:40 1015 29.97 844 24.92 3.9 39.1 47 -6.3 20.7
13:45 1015 29.97 844 24.92 3.2 37.7 53 -5.4 22.3
13:50 1014 29.94 844 24.92 2.7 36.9 53 -6 21.2
13:55 1014 29.94 844 24.92 3.2 37.8 51 -5.9 21.3
14:00 1014 29.94 844 24.92 3.4 38.2 52 -5.6 22
14:05 1014 29.94 844 24.92 3.3 37.9 53 -5.5 22.2
14:10 1014 29.94 844 24.92 2.9 37.2 55 -5.3 22.4
14:15 1014 29.94 843 24.89 2.6 36.8 56 -5.3 22.5
14:20 1014 29.94 843 24.89 2.2 36 58 -5.2 22.7
14:25 1014 29.94 843 24.89 2 35.5 59 -5.2 22.7
14:30 1014 29.94 843 24.89 1.7 35 58 -5.7 21.7
14:35 1014 29.94 843 24.89 1.6 34.9 58 -5.7 21.7
14:40 1014 29.94 843 24.89 1.5 34.6 62 -5.1 22.9
14:45 1014 29.94 843 24.89 1.4 34.5 60 -5.5 22.1
14:50 1014 29.94 843 24.89 1.5 34.8 61 -5.2 22.7
14:55 1014 29.94 843 24.89 1.7 35.1 61 -5.1 22.9
15:00 1014 29.94 843 24.89 1.8 35.2 60 -5.2 22.7
15:05 1014 29.94 843 24.89 1.8 35.3 61 -5 22.9
15:10 1014 29.94 843 24.89 1.8 35.2 59 -5.4 22.3
15:15 1014 29.94 843 24.89 1.6 35 60 -5.2 22.6
15:20 1014 29.94 843 24.89 1.7 35.1 60 -5.2 22.6
15:25 1014 29.94 843 24.89 1.8 35.3 60 -5.2 22.6
15:30 1014 29.94 843 24.89 1.6 35 61 -5.1 22.9
15:35 1014 29.94 843 24.89 1.6 34.9 61 -5.1 22.9
15:40 1014 29.94 843 24.89 1.5 34.8 60 -5.4 22.3
15:45 1014 29.94 843 24.89 1.5 34.7 59 -5.6 21.8
15:50 1014 29.94 843 24.89 1.6 34.9 59 -5.6 21.9
15:55 1014 29.94 843 24.89 1.7 35.1 60 -5.3 22.4
16:00 1014 29.94 843 24.89 1.7 35 60 -5.2 22.7
16:05 1014 29.94 843 24.89 1.8 35.2 59 -5.3 22.5
16:10 1014 29.94 843 24.89 1.9 35.3 61 -5 23
16:15 1014 29.94 843 24.89 1.7 35.1 60 -5.1 22.7
16:20 1014 29.94 843 24.89 1.6 34.9 60 -5.3 22.4
16:25 1014 29.94 843 24.89 1.5 34.7 62 -5.1 22.9
16:30 1014 29.94 843 24.89 1.5 34.8 62 -5 23.1
16:35 1014 29.94 843 24.89 1.6 34.8 62 -4.9 23.1
16:40 1014 29.94 843 24.89 1.5 34.7 63 -4.8 23.3
16:45 1014 29.94 843 24.89 1.4 34.5 63 -4.8 23.3
16:50 1014 29.94 843 24.89 1.2 34.1 64 -4.8 23.3
16:55 1014 29.94 843 24.89 1 33.8 65 -4.9 23.2
17:00 1014 29.94 843 24.89 1 33.7 65 -4.9 23.2
17:05 1014 29.94 843 24.89 0.9 33.5 66 -4.8 23.4
17:10 1014 29.94 843 24.89 0.8 33.4 65 -5 22.9
17:15 1014 29.94 843 24.89 0.7 33.2 66 -5 23
17:20 1014 29.94 843 24.89 0.6 33.2 66 -5 23
17:25 1014 29.94 843 24.89 0.6 33 67 -4.9 23.3
17:30 1014 29.94 843 24.89 0.6 33.1 67 -4.8 23.4
17:35 1013 29.91 843 24.89 0.5 33 68 -4.8 23.4
17:40 1013 29.91 843 24.89 0.6 33 67 -4.8 23.3
17:45 1014 29.94 843 24.89 0.6 33.2 68 -4.6 23.8
17:50 1014 29.94 843 24.89 0.6 33 68 -4.6 23.6
17:55 1014 29.94 843 24.89 0.7 33.2 65 -5.2 22.6
18:00 1013 29.91 843 24.89 0.8 33.4 64 -5.3 22.5
18:05 1014 29.94 843 24.89 0.9 33.5 65 -5 23.1
18:10 1014 29.94 843 24.89 0.7 33.3 65 -5.2 22.7
18:15 1014 29.94 843 24.89 0.7 33.2 65 -5.1 22.9
18:20 1014 29.94 843 24.89 0.5 32.9 67 -4.9 23.1
18:25 1014 29.94 843 24.89 0.4 32.7 67 -5 23
18:30 1014 29.94 843 24.89 0.4 32.7 67 -5.1 22.8
18:35 1014 29.94 843 24.89 0.5 32.8 67 -5 22.9
18:40 1013 29.91 843 24.89 0.5 32.8 66 -5.2 22.7
18:45 1013 29.91 843 24.89 0.4 32.8 66 -5.2 22.7
18:50 1014 29.94 843 24.89 0.5 32.8 65 -5.3 22.5
18:55 1014 29.94 843 24.89 0.4 32.7 66 -5.3 22.5
19:00 1014 29.94 843 24.89 0.5 32.9 64 -5.5 22.2
19:05 1014 29.94 843 24.89 0.7 33.3 62 -5.7 21.8
19:10 1014 29.94 843 24.89 0.9 33.5 64 -5.3 22.5
19:15 1014 29.94 843 24.89 1 33.8 64 -5.1 22.8
19:20 1014 29.94 843 24.89 1 33.8 65 -4.9 23.1
19:25 1014 29.94 843 24.89 0.9 33.7 66 -4.6 23.7
19:30 1014 29.94 843 24.89 0.9 33.7 65 -4.9 23.1
19:35 1014 29.94 843 24.89 1 33.8 67 -4.5 23.9
19:40 1014 29.94 843 24.89 0.8 33.5 68 -4.3 24.2
19:45 1014 29.94 843 24.89 0.7 33.2 69 -4.4 24.2
19:50 1014 29.94 843 24.89 0.5 32.9 69 -4.5 23.9
19:55 1014 29.94 843 24.89 0.2 32.4 72 -4.3 24.3
20:00 1014 29.94 843 24.89 0.2 32.4 72 -4.2 24.5
20:05 1014 29.94 843 24.89 0.1 32.2 73 -4.2 24.5
20:10 1014 29.94 843 24.89 0.2 32.3 68 -5.1 22.8
20:15 1014 29.94 843 24.89 0.4 32.7 67 -5.1 22.8
20:20 1014 29.94 843 24.89 0.7 33.2 66 -5.1 22.9
20:25 1014 29.94 843 24.89 0.8 33.5 67 -4.6 23.7
20:30 1014 29.94 843 24.89 0.8 33.4 68 -4.4 24
20:35 1014 29.94 843 24.89 0.7 33.2 69 -4.3 24.3
20:40 1014 29.94 843 24.89 0.4 32.8 69 -4.6 23.7
20:45 1014 29.94 843 24.89 0.2 32.3 73 -4.2 24.5
20:50 1014 29.94 843 24.89 0 32.1 66 -5.7 21.8
20:55 1014 29.94 843 24.89 0.6 33 69 -4.5 23.9
21:00 1014 29.94 843 24.89 0.5 32.8 72 -4 24.8
21:05 1014 29.94 843 24.89 0.2 32.4 73 -4.1 24.6
21:10 1014 29.94 843 24.89 0.1 32.2 73 -4.2 24.4
21:15 1014 29.94 843 24.89 0.1 32.1 72 -4.4 24.1
21:20 1014 29.94 843 24.89 0.2 32.4 70 -4.6 23.7
21:25 1014 29.94 843 24.89 0.4 32.8 69 -4.5 23.9
21:30 1014 29.94 843 24.89 0.6 33 70 -4.3 24.2
21:35 1014 29.94 843 24.89 0.7 33.3 66 -4.8 23.3
21:40 1014 29.94 843 24.89 1.1 34 62 -5.3 22.4
21:45 1014 29.94 843 24.89 1.6 34.9 64 -4.5 23.8
21:50 1014 29.94 843 24.89 1.7 35 65 -4.1 24.5
21:55 1014 29.94 843 24.89 1.5 34.8 67 -3.9 25
22:00 1014 29.94 843 24.89 1.5 34.6 69 -3.7 25.4
22:05 1014 29.94 843 24.89 1.4 34.6 68 -3.8 25.1
22:10 1014 29.94 843 24.89 1.4 34.5 70 -3.6 25.6
22:15 1014 29.94 843 24.89 1.1 34 69 -3.9 25
22:20 1014 29.94 843 24.89 1.2 34.2 70 -3.7 25.3
22:25 1014 29.94 843 24.89 1.4 34.5 67 -4 24.7
22:30 1014 29.94 843 24.89 1.4 34.6 62 -5.1 22.8
22:35 1014 29.94 843 24.89 1.5 34.6 63 -4.8 23.4
22:40 1014 29.94 843 24.89 1.6 34.8 64 -4.5 23.8
22:45 1014 29.94 843 24.89 1.8 35.3 61 -4.8 23.3
22:50 1014 29.94 843 24.89 1.5 34.6 69 -3.5 25.6
22:55 1014 29.94 843 24.89 1 33.8 72 -3.5 25.7
23:00 1014 29.94 843 24.89 0.9 33.6 73 -3.5 25.7
23:05 1014 29.94 843 24.89 0.9 33.6 71 -3.7 25.4
23:10 1014 29.94 843 24.89 1.1 34 71 -3.6 25.5
23:15 1014 29.94 843 24.89 1.3 34.4 69 -3.7 25.3
23:20 1014 29.94 843 24.89 1.5 34.7 68 -3.7 25.3
23:25 1014 29.94 843 24.89 1.6 34.9 68 -3.7 25.3
23:30 1014 29.94 843 24.89 1.8 35.3 65 -3.9 24.9
23:35 1014 29.94 843 24.89 2 35.6 67 -3.6 25.6
23:40 1014 29.94 843 24.89 1.9 35.4 67 -3.6 25.5
23:45 1014 29.94 843 24.89 1.8 35.3 66 -3.9 24.9
23:50 1014 29.94 843 24.89 1.8 35.2 68 -3.4 25.8
23:55 1014 29.94 843 24.89 1.6 34.8 69 -3.5 25.8
24:00 1014 29.94 843 24.89 1.3 34.3 70 -3.6 25.5